createdAt,value
2017-09-02T00:00:51.225Z,18.70
2017-09-02T00:03:17.901Z,18.23
2017-09-02T00:05:44.558Z,19.07
2017-09-02T00:08:11.229Z,20.23
2017-09-02T00:10:37.881Z,18.97
2017-09-02T00:13:04.533Z,20.07
2017-09-02T00:15:31.205Z,21.20
2017-09-02T00:17:57.856Z,21.30
2017-09-02T00:20:24.526Z,22.90
2017-09-02T00:22:51.208Z,23.17
2017-09-02T00:25:17.898Z,20.53
2017-09-02T00:27:44.559Z,20.13
2017-09-02T00:30:11.225Z,19.33
2017-09-02T00:32:37.902Z,19.47
2017-09-02T00:35:04.579Z,20.90
2017-09-02T00:37:31.233Z,20.70
2017-09-02T00:39:57.925Z,20.63
2017-09-02T00:42:24.578Z,20.63
2017-09-02T00:47:15.932Z,19.10
2017-09-02T00:49:43.389Z,18.13
2017-09-02T00:52:10.851Z,17.83
2017-09-02T00:54:38.334Z,19.40
2017-09-02T00:57:05.790Z,17.50
2017-09-02T00:59:33.250Z,18.60
2017-09-02T01:02:00.738Z,17.50
2017-09-02T01:04:28.198Z,19.20
2017-09-02T01:06:55.654Z,19.57
2017-09-02T01:09:23.151Z,19.30
2017-09-02T01:11:50.606Z,20.83
2017-09-02T01:14:18.072Z,21.43
2017-09-02T01:16:45.551Z,21.37
2017-09-02T01:19:13.011Z,22.23
2017-09-02T01:21:40.466Z,21.33
2017-09-02T01:24:07.946Z,19.50
2017-09-02T01:26:35.397Z,21.60
2017-09-02T01:29:02.862Z,21.63
2017-09-02T01:31:30.358Z,20.33
2017-09-02T01:33:57.846Z,19.37
2017-09-02T01:36:25.327Z,21.13
2017-09-02T01:38:52.815Z,20.80
2017-09-02T01:41:20.271Z,22.77
2017-09-02T01:43:47.734Z,20.80
2017-09-02T01:46:15.214Z,22.17
2017-09-02T01:48:42.670Z,23.27
2017-09-02T01:51:10.127Z,20.00
2017-09-02T01:53:37.606Z,24.07
2017-09-02T01:56:05.059Z,22.30
2017-09-02T01:58:32.518Z,22.97
2017-09-02T02:00:59.998Z,25.73
2017-09-02T02:03:27.455Z,26.77
2017-09-02T02:05:54.910Z,26.43
2017-09-02T02:08:22.391Z,27.53
2017-09-02T02:10:49.850Z,25.63
2017-09-02T02:13:17.311Z,26.43
2017-09-02T02:15:44.812Z,23.40
2017-09-02T02:18:12.266Z,24.47
2017-09-02T02:20:39.722Z,25.07
2017-09-02T02:23:07.206Z,24.97
2017-09-02T02:25:34.666Z,27.20
2017-09-02T02:28:02.127Z,26.60
2017-09-02T02:30:29.603Z,27.17
2017-09-02T02:32:57.062Z,28.50
2017-09-02T02:35:24.523Z,28.20
2017-09-02T02:37:52.011Z,27.13
2017-09-02T02:40:19.466Z,29.07
2017-09-02T02:42:46.934Z,33.53
2017-09-02T02:45:14.414Z,29.23
2017-09-02T02:47:41.870Z,30.03
2017-09-02T02:50:09.330Z,29.93
2017-09-02T02:52:36.840Z,30.93
2017-09-02T02:55:04.302Z,33.53
2017-09-02T02:57:31.762Z,33.53
2017-09-02T02:59:59.247Z,33.00
2017-09-02T03:02:26.716Z,33.70
2017-09-02T03:04:54.179Z,33.60
2017-09-02T03:07:21.658Z,34.00
2017-09-02T03:09:49.114Z,29.57
2017-09-02T03:12:16.570Z,28.40
2017-09-02T03:14:44.062Z,26.30
2017-09-02T03:17:11.523Z,27.63
2017-09-02T03:19:38.982Z,28.20
2017-09-02T03:22:06.472Z,29.00
2017-09-02T03:24:33.934Z,27.70
2017-09-02T03:27:01.391Z,26.53
2017-09-02T03:29:28.874Z,26.87
2017-09-02T03:31:56.330Z,27.70
2017-09-02T03:34:23.794Z,28.47
2017-09-02T03:36:51.270Z,27.87
2017-09-02T03:39:18.729Z,28.47
2017-09-02T03:41:46.197Z,25.93
2017-09-02T03:44:13.678Z,27.20
2017-09-02T03:46:41.143Z,27.43
2017-09-02T03:49:08.601Z,27.80
2017-09-02T03:51:36.078Z,29.53
2017-09-02T03:54:03.534Z,26.63
2017-09-02T03:56:30.990Z,27.37
2017-09-02T03:58:58.474Z,26.77
2017-09-02T04:01:25.926Z,24.27
2017-09-02T04:03:53.387Z,24.43
2017-09-02T04:06:20.870Z,24.50
2017-09-02T04:08:48.337Z,25.90
2017-09-02T04:11:15.793Z,23.07
2017-09-02T04:13:43.286Z,26.27
2017-09-02T04:16:10.742Z,36.90
2017-09-02T04:18:38.198Z,38.50
2017-09-02T04:21:05.678Z,39.70
2017-09-02T04:23:33.134Z,39.03
2017-09-02T04:26:00.593Z,41.50
2017-09-02T04:28:28.074Z,37.30
2017-09-02T04:30:55.535Z,40.37
2017-09-02T04:33:22.994Z,41.53
2017-09-02T04:35:50.486Z,36.37
2017-09-02T04:38:17.942Z,41.10
2017-09-02T04:40:45.399Z,41.37
2017-09-02T04:43:12.890Z,40.27
2017-09-02T04:45:40.342Z,41.27
2017-09-02T04:48:07.798Z,38.30
2017-09-02T04:50:35.283Z,39.47
2017-09-02T04:53:02.759Z,42.80
2017-09-02T04:55:30.223Z,42.50
2017-09-02T04:57:57.727Z,46.70
2017-09-02T05:00:25.191Z,44.13
2017-09-02T05:02:52.651Z,43.40
2017-09-02T05:05:20.134Z,41.47
2017-09-02T05:07:47.590Z,44.23
2017-09-02T05:10:15.051Z,44.23
2017-09-02T05:12:42.543Z,40.90
2017-09-02T05:15:10.007Z,40.70
2017-09-02T05:17:37.474Z,43.10
2017-09-02T05:20:04.966Z,44.30
2017-09-02T05:22:32.422Z,43.60
2017-09-02T05:24:59.891Z,42.77
2017-09-02T05:27:27.370Z,43.90
2017-09-02T05:29:54.823Z,42.77
2017-09-02T05:32:22.302Z,44.50
2017-09-02T05:34:49.786Z,42.40
2017-09-02T05:37:17.243Z,37.90
2017-09-02T05:39:44.704Z,39.43
2017-09-02T05:42:12.194Z,37.80
2017-09-02T05:44:39.658Z,38.83
2017-09-02T05:47:07.114Z,38.70
2017-09-02T05:49:34.599Z,39.30
2017-09-02T05:52:02.062Z,41.93
2017-09-02T05:54:29.517Z,37.33
2017-09-02T05:56:57.002Z,40.37
2017-09-02T05:59:24.474Z,37.50
2017-09-02T06:01:51.934Z,38.20
2017-09-02T06:04:19.422Z,37.40
2017-09-02T06:06:46.878Z,37.53
2017-09-02T06:09:14.339Z,36.60
2017-09-02T06:11:41.838Z,31.87
2017-09-02T06:14:09.294Z,35.53
2017-09-02T06:16:36.755Z,32.17
2017-09-02T06:19:04.244Z,32.60
2017-09-02T06:21:31.706Z,33.70
2017-09-02T06:23:59.166Z,35.53
2017-09-02T06:26:26.648Z,29.77
2017-09-02T06:28:54.110Z,31.20
2017-09-02T06:31:21.566Z,28.97
2017-09-02T06:33:49.049Z,29.47
2017-09-02T06:36:16.506Z,29.97
2017-09-02T06:38:43.962Z,31.67
2017-09-02T06:41:11.447Z,32.83
2017-09-02T06:43:38.906Z,32.10
2017-09-02T06:46:06.364Z,33.20
2017-09-02T06:48:33.848Z,30.33
2017-09-02T06:51:01.310Z,33.00
2017-09-02T06:53:28.780Z,33.30
2017-09-02T06:55:56.262Z,36.03
2017-09-02T06:58:23.722Z,36.47
2017-09-02T07:00:51.179Z,34.20
2017-09-02T07:03:18.662Z,34.87
2017-09-02T07:05:46.128Z,33.60
2017-09-02T07:08:13.598Z,36.67
2017-09-02T07:10:41.095Z,36.23
2017-09-02T07:13:08.570Z,34.50
2017-09-02T07:15:36.031Z,33.83
2017-09-02T07:18:03.506Z,31.10
2017-09-02T07:20:30.999Z,32.80
2017-09-02T07:22:58.476Z,33.47
2017-09-02T07:25:25.951Z,31.70
2017-09-02T07:27:53.403Z,33.73
2017-09-02T07:30:20.862Z,35.77
2017-09-02T07:32:48.348Z,31.83
2017-09-02T07:35:15.806Z,36.07
2017-09-02T07:37:43.262Z,35.87
2017-09-02T07:40:10.742Z,32.07
2017-09-02T07:42:38.205Z,32.70
2017-09-02T07:45:05.674Z,31.37
2017-09-02T07:47:33.166Z,32.00
2017-09-02T07:50:00.625Z,30.60
2017-09-02T07:52:28.086Z,32.73
2017-09-02T07:54:55.569Z,31.73
2017-09-02T07:57:23.031Z,30.40
2017-09-02T07:59:50.491Z,32.00
2017-09-02T08:02:17.971Z,32.40
2017-09-02T08:04:45.437Z,31.93
2017-09-02T08:07:12.901Z,31.30
2017-09-02T08:09:40.383Z,29.17
2017-09-02T08:12:07.871Z,31.03
2017-09-02T08:14:35.335Z,32.20
2017-09-02T08:17:03.035Z,31.77
2017-09-02T08:19:30.729Z,30.03
2017-09-02T08:21:58.250Z,32.83
2017-09-02T08:24:25.724Z,33.27
2017-09-02T08:26:53.227Z,31.27
2017-09-02T08:29:20.688Z,29.90
2017-09-02T08:31:48.188Z,30.57
2017-09-02T08:34:15.686Z,30.87
2017-09-02T08:36:43.149Z,29.83
2017-09-02T08:39:10.605Z,31.80
2017-09-02T08:41:38.090Z,30.70
2017-09-02T08:44:05.575Z,30.80
2017-09-02T08:46:33.051Z,31.60
2017-09-02T08:49:00.521Z,30.90
2017-09-02T08:51:27.978Z,30.87
2017-09-02T08:53:55.472Z,34.60
2017-09-02T08:56:22.938Z,28.40
2017-09-02T08:58:50.409Z,31.63
2017-09-02T09:01:17.890Z,32.17
2017-09-02T09:03:45.354Z,29.23
2017-09-02T09:06:12.810Z,30.23
2017-09-02T09:08:40.341Z,28.30
2017-09-02T09:11:07.842Z,31.07
2017-09-02T09:13:35.306Z,31.07
2017-09-02T09:16:02.787Z,29.07
2017-09-02T09:18:30.241Z,27.30
2017-09-02T09:20:57.699Z,27.20
2017-09-02T09:23:25.189Z,24.10
2017-09-02T09:25:52.671Z,22.30
2017-09-02T09:28:20.200Z,22.70
2017-09-02T09:30:47.669Z,23.43
2017-09-02T09:33:15.171Z,24.63
2017-09-02T09:35:42.635Z,22.90
2017-09-02T09:38:10.102Z,23.57
2017-09-02T09:40:37.578Z,22.50
2017-09-02T09:43:05.034Z,21.80
2017-09-02T09:45:32.518Z,19.30
2017-09-02T09:47:59.974Z,20.03
2017-09-02T09:50:27.439Z,19.30
2017-09-02T09:52:54.922Z,18.60
2017-09-02T09:55:22.381Z,17.47
2017-09-02T09:57:49.838Z,15.90
2017-09-02T10:00:17.323Z,17.20
2017-09-02T10:02:44.779Z,17.07
2017-09-02T10:05:12.242Z,17.40
2017-09-02T10:07:39.741Z,16.80
2017-09-02T10:10:07.206Z,19.27
2017-09-02T10:12:34.679Z,16.63
2017-09-02T10:15:02.176Z,15.87
2017-09-02T10:17:29.635Z,13.63
2017-09-02T10:19:57.106Z,12.77
2017-09-02T10:22:24.603Z,13.53
2017-09-02T10:24:52.063Z,13.23
2017-09-02T10:27:19.547Z,13.80
2017-09-02T10:29:47.030Z,13.90
2017-09-02T10:32:14.494Z,14.53
2017-09-02T10:34:41.954Z,12.70
2017-09-02T10:37:09.443Z,13.73
2017-09-02T10:39:36.927Z,13.07
2017-09-02T10:42:04.382Z,15.23
2017-09-02T10:44:31.834Z,13.20
2017-09-02T10:46:59.314Z,13.20
2017-09-02T10:49:26.770Z,12.20
2017-09-02T10:51:54.238Z,12.03
2017-09-02T10:54:21.727Z,11.33
2017-09-02T10:56:49.532Z,15.30
2017-09-02T10:59:17.319Z,12.20
2017-09-02T11:01:44.811Z,11.17
2017-09-02T11:04:12.519Z,12.80
2017-09-02T11:06:39.988Z,13.80
2017-09-02T11:09:07.482Z,12.20
2017-09-02T11:11:34.987Z,13.40
2017-09-02T11:14:02.962Z,13.13
2017-09-02T11:16:30.469Z,12.63
2017-09-02T11:18:57.961Z,10.83
2017-09-02T11:21:25.445Z,13.40
2017-09-02T11:23:52.934Z,13.10
2017-09-02T11:26:20.403Z,14.90
2017-09-02T11:28:47.863Z,13.60
2017-09-02T11:31:15.366Z,12.90
2017-09-02T11:33:42.829Z,13.13
2017-09-02T11:36:10.304Z,11.57
2017-09-02T11:38:37.790Z,11.60
2017-09-02T11:41:05.256Z,11.33
2017-09-02T11:43:32.711Z,12.03
2017-09-02T11:46:00.196Z,11.53
2017-09-02T11:48:27.655Z,11.60
2017-09-02T11:50:55.122Z,13.17
2017-09-02T11:53:22.703Z,11.13
2017-09-02T11:55:50.179Z,11.53
2017-09-02T11:58:17.642Z,11.83
2017-09-02T12:00:45.134Z,12.83
2017-09-02T12:03:12.589Z,11.77
2017-09-02T12:05:40.041Z,13.47
2017-09-02T12:08:07.518Z,11.97
2017-09-02T12:10:34.974Z,13.13
2017-09-02T12:13:02.455Z,14.30
2017-09-02T12:15:29.939Z,15.43
2017-09-02T12:17:57.391Z,16.40
2017-09-02T12:20:24.862Z,17.50
2017-09-02T12:22:52.355Z,15.23
2017-09-02T12:25:19.835Z,19.83
2017-09-02T12:27:47.318Z,15.50
2017-09-02T12:30:14.799Z,16.00
2017-09-02T12:32:42.260Z,17.93
2017-09-02T12:35:09.723Z,16.33
2017-09-02T12:37:37.210Z,14.87
2017-09-02T12:40:04.666Z,15.23
2017-09-02T12:42:32.126Z,15.97
2017-09-02T12:44:59.610Z,13.63
2017-09-02T12:47:27.070Z,15.27
2017-09-02T12:49:54.602Z,16.30
2017-09-02T12:52:22.096Z,15.20
2017-09-02T12:54:49.558Z,16.20
2017-09-02T12:57:17.016Z,14.90
2017-09-02T12:59:44.510Z,12.77
2017-09-02T13:02:11.971Z,13.60
2017-09-02T13:04:39.431Z,14.40
2017-09-02T13:07:06.917Z,14.37
2017-09-02T13:09:34.375Z,14.20
2017-09-02T13:12:01.837Z,12.53
2017-09-02T13:14:29.327Z,12.00
2017-09-02T13:16:56.782Z,12.10
2017-09-02T13:19:24.239Z,12.00
2017-09-02T13:21:51.735Z,12.60
2017-09-02T13:24:19.198Z,12.30
2017-09-02T13:26:46.657Z,11.13
2017-09-02T13:29:14.147Z,11.70
2017-09-02T13:31:41.608Z,10.30
2017-09-02T13:34:09.062Z,13.87
2017-09-02T13:36:36.539Z,13.07
2017-09-02T13:39:04.002Z,11.40
2017-09-02T13:41:31.462Z,11.23
2017-09-02T13:43:58.975Z,11.00
2017-09-02T13:46:26.443Z,11.20
2017-09-02T13:48:53.902Z,10.63
2017-09-02T13:51:21.390Z,12.47
2017-09-02T13:53:48.850Z,11.40
2017-09-02T13:56:16.318Z,10.47
2017-09-02T13:58:43.802Z,13.20
2017-09-02T14:01:11.258Z,12.37
2017-09-02T14:03:38.719Z,12.37
2017-09-02T14:06:06.215Z,13.20
2017-09-02T14:08:33.677Z,13.80
2017-09-02T14:11:01.146Z,14.73
2017-09-02T14:13:28.627Z,13.37
2017-09-02T14:15:56.128Z,12.80
2017-09-02T14:18:23.606Z,11.90
2017-09-02T14:20:51.086Z,11.43
2017-09-02T14:23:18.555Z,12.20
2017-09-02T14:25:46.014Z,11.20
2017-09-02T14:28:13.539Z,13.03
2017-09-02T14:30:40.999Z,11.43
2017-09-02T14:33:08.458Z,11.80
2017-09-02T14:35:35.943Z,16.57
2017-09-02T14:38:03.398Z,9.63
2017-09-02T14:40:30.859Z,13.03
2017-09-02T14:42:58.366Z,9.80
2017-09-02T14:45:25.832Z,9.80
2017-09-02T14:47:53.289Z,10.50
2017-09-02T14:50:20.770Z,9.47
2017-09-02T14:52:48.259Z,9.80
2017-09-02T14:55:15.735Z,10.27
2017-09-02T14:57:43.230Z,10.80
2017-09-02T15:00:10.677Z,9.40
2017-09-02T15:02:38.139Z,13.07
2017-09-02T15:05:05.622Z,10.17
2017-09-02T15:07:33.084Z,10.80
2017-09-02T15:12:34.246Z,10.80
2017-09-02T15:15:01.706Z,10.73
2017-09-02T15:17:29.168Z,12.10
2017-09-02T15:19:56.651Z,11.53
2017-09-02T15:22:24.118Z,11.33
2017-09-02T15:24:51.580Z,11.50
2017-09-02T15:27:19.063Z,11.43
2017-09-02T15:29:46.519Z,11.23
2017-09-02T15:32:13.974Z,11.07
2017-09-02T15:34:41.459Z,10.27
2017-09-02T15:37:08.920Z,11.53
2017-09-02T15:39:36.378Z,13.17
2017-09-02T15:42:03.863Z,11.40
2017-09-02T15:44:31.322Z,11.87
2017-09-02T15:46:58.778Z,10.80
2017-09-02T15:49:26.281Z,10.53
2017-09-02T15:51:53.742Z,10.80
2017-09-02T15:54:21.199Z,11.27
2017-09-02T15:56:48.683Z,12.80
2017-09-02T15:59:16.147Z,11.77
2017-09-02T16:01:43.608Z,11.77
2017-09-02T16:04:11.089Z,15.07
2017-09-02T16:06:38.546Z,12.03
2017-09-02T16:09:06.004Z,11.70
2017-09-02T16:11:33.486Z,13.70
2017-09-02T16:14:00.943Z,12.50
2017-09-02T16:16:28.399Z,13.60
2017-09-02T16:18:55.882Z,11.63
2017-09-02T16:21:23.338Z,17.10
2017-09-02T16:23:50.798Z,13.30
2017-09-02T16:26:18.299Z,11.63
2017-09-02T16:28:45.759Z,13.90
2017-09-02T16:31:13.222Z,12.03
2017-09-02T16:33:40.710Z,11.10
2017-09-02T16:36:08.172Z,12.00
2017-09-02T16:38:35.631Z,14.00
2017-09-02T16:41:03.110Z,11.90
2017-09-02T16:43:30.568Z,11.60
2017-09-02T16:45:58.042Z,11.77
2017-09-02T16:48:25.527Z,11.27
2017-09-02T16:50:52.987Z,11.77
2017-09-02T16:53:20.442Z,11.60
2017-09-02T16:55:47.932Z,10.93
2017-09-02T16:58:15.389Z,12.07
2017-09-02T17:00:42.847Z,12.20
2017-09-02T17:03:10.336Z,11.97
2017-09-02T17:05:37.798Z,13.70
2017-09-02T17:08:05.254Z,14.43
2017-09-02T17:10:32.734Z,13.13
2017-09-02T17:13:00.216Z,13.37
2017-09-02T17:15:27.735Z,11.67
2017-09-02T17:17:55.210Z,11.27
2017-09-02T17:20:22.696Z,10.00
2017-09-02T17:22:50.190Z,9.90
2017-09-02T17:25:17.676Z,10.30
2017-09-02T17:27:45.142Z,11.50
2017-09-02T17:30:12.599Z,10.37
2017-09-02T17:32:40.099Z,9.70
2017-09-02T17:35:07.532Z,10.17
2017-09-02T17:37:35.014Z,10.90
2017-09-02T17:40:02.511Z,11.10
2017-09-02T17:42:29.966Z,11.30
2017-09-02T17:44:57.431Z,10.40
2017-09-02T17:47:24.910Z,11.47
2017-09-02T17:49:52.366Z,10.77
2017-09-02T17:52:19.822Z,11.30
2017-09-02T17:54:47.306Z,12.60
2017-09-02T17:57:14.767Z,10.90
2017-09-02T17:59:42.258Z,11.47
2017-09-02T18:02:09.738Z,12.67
2017-09-02T18:04:37.194Z,11.70
2017-09-02T18:07:04.670Z,12.17
2017-09-02T18:09:32.128Z,11.40
2017-09-02T18:11:59.592Z,12.00
2017-09-02T18:14:27.078Z,12.07
2017-09-02T18:16:54.534Z,12.67
2017-09-02T18:19:21.994Z,11.20
2017-09-02T18:21:49.479Z,12.67
2017-09-02T18:24:16.938Z,10.90
2017-09-02T18:26:44.399Z,12.20
2017-09-02T18:29:11.881Z,12.50
2017-09-02T18:31:39.338Z,11.83
2017-09-02T18:34:06.792Z,11.70
2017-09-02T18:36:34.275Z,12.50
2017-09-02T18:39:01.735Z,12.97
2017-09-02T18:41:29.190Z,12.17
2017-09-02T18:43:56.854Z,12.80
2017-09-02T18:46:24.311Z,12.23
2017-09-02T18:48:51.775Z,12.70
2017-09-02T18:51:19.271Z,12.43
2017-09-02T18:53:46.758Z,12.60
2017-09-02T18:56:14.227Z,13.33
2017-09-02T18:58:41.787Z,11.73
2017-09-02T19:01:09.274Z,12.37
2017-09-02T19:03:36.904Z,13.40
2017-09-02T19:06:04.557Z,13.77
2017-09-02T19:08:32.261Z,13.90
2017-09-02T19:10:59.977Z,13.47
2017-09-02T19:13:28.105Z,14.37
2017-09-02T19:15:56.001Z,15.30
2017-09-02T19:18:24.016Z,14.07
2017-09-02T19:20:52.297Z,14.80
2017-09-02T19:23:20.309Z,14.83
2017-09-02T19:25:48.160Z,14.60
2017-09-02T19:28:16.375Z,14.00
2017-09-02T19:30:44.600Z,14.30
2017-09-02T19:33:12.934Z,13.87
2017-09-02T19:35:41.323Z,14.23
2017-09-02T19:38:09.705Z,14.17
2017-09-02T19:40:37.987Z,13.17
2017-09-02T19:43:06.400Z,14.20
2017-09-02T19:45:34.694Z,14.13
2017-09-02T19:48:02.986Z,14.90
2017-09-02T19:50:31.506Z,12.73
2017-09-02T19:52:59.897Z,12.50
2017-09-02T19:55:28.221Z,14.57
2017-09-02T19:57:56.733Z,13.30
2017-09-02T20:00:25.234Z,13.80
2017-09-02T20:02:53.752Z,13.30
2017-09-02T20:05:22.293Z,12.67
2017-09-02T20:07:50.682Z,14.17
2017-09-02T20:10:19.133Z,14.50
2017-09-02T20:12:47.743Z,14.23
2017-09-02T20:15:16.186Z,14.80
2017-09-02T20:17:44.586Z,13.50
2017-09-02T20:20:13.163Z,14.00
2017-09-02T20:22:41.634Z,14.83
2017-09-02T20:25:10.106Z,14.67
2017-09-02T20:27:38.591Z,14.40
2017-09-02T20:30:07.061Z,14.20
2017-09-02T20:32:35.451Z,15.33
2017-09-02T20:35:03.949Z,14.73
2017-09-02T20:37:32.359Z,14.67
2017-09-02T20:40:00.753Z,15.70
2017-09-02T20:42:29.141Z,15.87
2017-09-02T20:44:57.407Z,15.23
2017-09-02T20:47:25.501Z,14.70
2017-09-02T20:49:53.616Z,14.13
2017-09-02T20:52:21.629Z,15.17
2017-09-02T20:54:49.190Z,14.73
2017-09-02T20:57:16.969Z,15.50
2017-09-02T20:59:44.651Z,15.47
2017-09-02T21:02:12.644Z,16.93
2017-09-02T21:04:40.558Z,16.90
2017-09-02T21:07:08.467Z,19.73
2017-09-02T21:09:36.266Z,17.17
2017-09-02T21:12:03.850Z,17.27
2017-09-02T21:14:31.391Z,15.97
2017-09-02T21:16:58.918Z,14.80
2017-09-02T21:19:26.394Z,18.80
2017-09-02T21:21:54.401Z,16.50
2017-09-02T21:24:21.861Z,17.07
2017-09-02T21:26:49.336Z,18.57
2017-09-02T21:29:16.927Z,17.70
2017-09-02T21:31:44.402Z,17.97
2017-09-02T21:34:11.863Z,17.97
2017-09-02T21:36:39.348Z,17.80
2017-09-02T21:39:06.820Z,17.27
2017-09-02T21:41:34.280Z,19.40
2017-09-02T21:44:01.759Z,19.57
2017-09-02T21:46:29.222Z,18.90
2017-09-02T21:48:56.679Z,18.60
2017-09-02T21:51:24.166Z,19.10
2017-09-02T21:53:51.630Z,17.23
2017-09-02T21:56:19.086Z,18.37
2017-09-02T21:58:46.570Z,19.90
2017-09-02T22:01:15.408Z,19.43
2017-09-02T22:03:42.875Z,18.83
2017-09-02T22:06:10.358Z,18.67
2017-09-02T22:08:37.815Z,18.80
2017-09-02T22:11:05.303Z,20.27
2017-09-02T22:13:32.759Z,20.53
2017-09-02T22:16:00.209Z,20.33
2017-09-02T22:18:27.698Z,21.03
2017-09-02T22:20:55.153Z,20.23
2017-09-02T22:23:22.615Z,21.27
2017-09-02T22:25:50.098Z,22.73
2017-09-02T22:28:17.554Z,23.60
2017-09-02T22:30:45.015Z,21.70
2017-09-02T22:33:12.496Z,23.80
2017-09-02T22:35:39.950Z,24.17
2017-09-02T22:38:07.405Z,22.93
2017-09-02T22:40:34.886Z,23.97
2017-09-02T22:43:02.346Z,25.20
2017-09-02T22:45:29.807Z,24.20
2017-09-02T22:47:57.295Z,22.90
2017-09-02T22:50:24.759Z,25.43
2017-09-02T22:52:52.218Z,25.13
2017-09-02T22:55:19.704Z,28.50
2017-09-02T22:57:47.167Z,23.70
2017-09-02T23:00:14.626Z,24.80
2017-09-02T23:02:42.107Z,23.13
2017-09-02T23:05:09.566Z,26.40
2017-09-02T23:07:37.029Z,23.10
2017-09-02T23:10:04.514Z,23.80
2017-09-02T23:12:31.976Z,23.53
2017-09-02T23:14:59.779Z,24.70
2017-09-02T23:17:27.267Z,23.80
2017-09-02T23:19:54.727Z,23.97
2017-09-02T23:22:22.186Z,22.43
2017-09-02T23:24:49.670Z,21.80
2017-09-02T23:27:17.131Z,22.80
2017-09-02T23:29:44.596Z,22.93
2017-09-02T23:32:12.082Z,22.30
2017-09-02T23:34:39.538Z,19.90
2017-09-02T23:37:06.994Z,21.27
2017-09-02T23:39:34.474Z,24.10
2017-09-02T23:42:01.939Z,22.80
2017-09-02T23:44:29.394Z,24.37
2017-09-02T23:46:56.870Z,21.40
2017-09-02T23:49:24.342Z,21.40
2017-09-02T23:51:51.807Z,21.23
2017-09-02T23:54:19.297Z,23.67
2017-09-02T23:56:46.766Z,23.60
2017-09-02T23:59:14.226Z,22.60
